Time;durP1;ratioP1;P1;durP2;ratioP2;P2;SDS_P1;SDS_P2;PMS_P1;PMS_P2;Temp;Humidity;BMP_temperature;BMP_pressure;BME280_temperature;BME280_humidity;BME280_pressure;Samples;Min_cycle;Max_cycle;Signal;HPM_P1;HPM_P2
2022/10/12 00:00:38;;;;;;;15.65;13.15;;;;;;;12.91;100.00;100334.47;5071660;28;20064;-74
2022/10/12 00:03:03;;;;;;;15.52;13.88;;;;;;;12.93;100.00;100332.50;5072354;28;20120;-73
2022/10/12 00:05:29;;;;;;;16.23;13.55;;;;;;;12.98;100.00;100330.28;5071732;28;20472;-74
2022/10/12 00:07:54;;;;;;;17.92;13.55;;;;;;;12.96;100.00;100332.25;5071775;28;20047;-74
2022/10/12 00:10:20;;;;;;;15.98;13.32;;;;;;;12.92;100.00;100330.84;5071710;28;20056;-75
2022/10/12 00:12:45;;;;;;;16.83;13.60;;;;;;;12.89;100.00;100329.31;5071505;28;20035;-75
2022/10/12 00:15:11;;;;;;;16.58;14.02;;;;;;;12.92;100.00;100331.69;5076007;28;20391;-74
2022/10/12 00:17:36;;;;;;;17.67;14.10;;;;;;;12.95;100.00;100328.78;5071520;28;20028;-75
2022/10/12 00:20:03;;;;;;;22.38;13.93;;;;;;;13.00;100.00;100333.63;5071773;28;20036;-75
2022/10/12 00:22:29;;;;;;;17.35;14.25;;;;;;;12.97;100.00;100324.16;5071484;28;20043;-74
2022/10/12 00:24:54;;;;;;;18.15;13.45;;;;;;;12.94;100.00;100323.59;5070157;28;20100;-76
2022/10/12 00:27:20;;;;;;;18.10;14.30;;;;;;;12.98;100.00;100325.00;5071502;28;20115;-74
2022/10/12 00:29:45;;;;;;;19.00;14.73;;;;;;;12.97;100.00;100323.31;5071147;28;20465;-74
2022/10/12 00:32:11;;;;;;;17.08;15.07;;;;;;;13.01;100.00;100324.72;5070055;28;20024;-75
2022/10/12 00:34:36;;;;;;;18.38;15.07;;;;;;;13.05;100.00;100324.28;5075259;28;20570;-75
2022/10/12 00:37:02;;;;;;;15.10;13.43;;;;;;;13.02;100.00;100326.38;5071403;28;20056;-74
2022/10/12 00:39:27;;;;;;;16.23;13.65;;;;;;;13.00;100.00;100317.75;5070671;28;20064;-74
2022/10/12 00:41:53;;;;;;;16.58;13.05;;;;;;;13.00;100.00;100317.75;5071017;28;20055;-74
2022/10/12 00:44:42;;;;;;;15.00;13.50;;;;;;;13.00;100.00;100323.88;5071238;28;20159;-75
2022/10/12 00:47:21;;;;;;;17.92;13.82;;;;;;;12.96;100.00;100316.38;5065993;28;20476;-75
2022/10/12 00:49:53;;;;;;;15.98;13.90;;;;;;;12.79;100.00;100319.66;5071106;28;20032;-73
2022/10/12 00:52:22;;;;;;;18.63;13.93;;;;;;;12.82;100.00;100320.25;5071191;28;20116;-73
2022/10/12 00:54:50;;;;;;;18.23;14.77;;;;;;;12.88;100.00;100313.56;5073871;28;20785;-74
2022/10/12 00:57:17;;;;;;;16.00;14.40;;;;;;;12.91;100.00;100321.22;5070871;28;20039;-74
2022/10/12 00:59:54;;;;;;;16.63;13.32;;;;;;;12.87;100.00;100322.47;5070389;28;20039;-74
2022/10/12 01:02:23;;;;;;;19.27;14.00;;;;;;;12.86;100.00;100316.34;5070555;28;20074;-74
2022/10/12 01:04:48;;;;;;;16.77;12.85;;;;;;;12.88;100.00;100316.22;5070622;28;20041;-73
2022/10/12 01:07:14;;;;;;;14.63;12.20;;;;;;;12.84;100.00;100317.47;5070689;28;20043;-75
2022/10/12 01:09:40;;;;;;;17.33;13.27;;;;;;;12.85;100.00;100311.16;5068095;28;20060;-73
2022/10/12 01:12:07;;;;;;;17.67;14.27;;;;;;;12.89;100.00;100309.94;5071001;28;20037;-74
2022/10/12 01:14:33;;;;;;;17.35;13.50;;;;;;;12.89;100.00;100315.25;5070106;28;20032;-74
2022/10/12 01:17:13;;;;;;;15.88;13.57;;;;;;;12.89;100.00;100310.78;5070522;28;20043;-73
2022/10/12 01:20:27;;;;;;;16.73;13.52;;;;;;;12.90;100.00;100316.91;5067220;28;20077;-73
2022/10/12 01:23:13;;;;;;;15.57;13.60;;;;;;;12.85;100.00;100319.97;5069314;28;20047;-74
2022/10/12 01:25:41;;;;;;;16.08;14.32;;;;;;;12.67;100.00;100317.16;5066946;28;20116;-74
2022/10/12 01:28:40;;;;;;;16.27;13.45;;;;;;;12.67;100.00;100325.09;5070355;28;20729;-73
2022/10/12 01:31:32;;;;;;;17.75;13.93;;;;;;;12.63;100.00;100315.75;5066155;28;20048;-74
2022/10/12 01:34:20;;;;;;;14.90;13.27;;;;;;;12.65;100.00;100324.41;5069905;28;20040;-74
2022/10/12 01:37:12;;;;;;;14.63;13.07;;;;;;;12.65;100.00;100321.78;5067577;28;20042;-73
2022/10/12 01:39:52;;;;;;;18.75;13.18;;;;;;;12.60;100.00;100317.88;5066280;28;20044;-74
2022/10/12 01:42:27;;;;;;;17.20;12.50;;;;;;;12.61;100.00;100323.00;5070419;28;20032;-73
2022/10/12 01:45:11;;;;;;;17.00;12.88;;;;;;;12.60;100.00;100315.22;5070100;28;20033;-74
2022/10/12 01:47:39;;;;;;;17.35;13.43;;;;;;;12.58;100.00;100315.34;5069188;28;20111;-74
2022/10/12 01:50:09;;;;;;;19.00;13.57;;;;;;;12.39;100.00;100312.66;5074016;28;20032;-74
2022/10/12 01:52:53;;;;;;;;;;;;;;;12.34;100.00;100312.22;5068676;28;20029;-74
2022/10/12 01:55:34;;;;;;;18.10;12.73;;;;;;;12.34;100.00;100312.22;5069374;28;20368;-75
2022/10/12 01:58:28;;;;;;;20.10;14.50;;;;;;;12.34;100.00;100311.38;5070105;28;20480;-74
2022/10/12 02:00:59;;;;;;;16.05;13.98;;;;;;;12.31;100.00;100309.88;5067599;28;20040;-75
2022/10/12 02:03:45;;;;;;;16.50;14.38;;;;;;;12.31;100.00;100309.88;5069849;28;20131;-75
2022/10/12 02:06:21;;;;;;;15.30;13.70;;;;;;;12.39;100.00;100310.00;5066661;28;20480;-74
2022/10/12 02:08:56;;;;;;;15.30;13.70;;;;;;;12.39;100.00;100304.72;5073063;28;20053;-74
2022/10/12 02:11:23;;;;;;;21.65;13.90;;;;;;;12.40;100.00;100308.19;5069833;28;20452;-75
2022/10/12 02:14:12;;;;;;;19.30;14.38;;;;;;;12.38;100.00;100303.03;5067929;28;20036;-74
2022/10/12 02:16:42;;;;;;;20.27;13.65;;;;;;;12.32;100.00;100300.94;5068662;28;20072;-74
2022/10/12 02:19:12;;;;;;;16.90;12.93;;;;;;;12.24;100.00;100306.06;5069994;28;20032;-75
2022/10/12 02:21:39;;;;;;;14.82;13.18;;;;;;;12.16;100.00;100301.44;5067538;28;20028;-75
2022/10/12 02:24:07;;;;;;;16.48;13.02;;;;;;;12.13;100.00;100290.31;5069431;28;20074;-74
2022/10/12 02:26:36;;;;;;;14.35;12.82;;;;;;;12.14;100.00;100291.97;5065525;28;20149;-74
2022/10/12 02:29:06;;;;;;;14.13;11.75;;;;;;;12.13;100.00;100290.31;5065762;28;20020;-74
2022/10/12 02:31:40;;;;;;;18.00;13.23;;;;;;;12.13;100.00;100290.31;5065287;28;20054;-74
2022/10/12 02:34:14;;;;;;;16.63;13.38;;;;;;;12.19;100.00;100295.06;5066301;28;20032;-74
2022/10/12 02:36:47;;;;;;;20.48;12.68;;;;;;;12.21;100.00;100282.53;5066434;28;20028;-74
2022/10/12 02:39:22;;;;;;;17.20;13.40;;;;;;;12.23;100.00;100291.16;5069433;28;20028;-74
2022/10/12 02:41:56;;;;;;;14.77;13.05;;;;;;;12.22;100.00;100294.78;5069611;28;20044;-74
2022/10/12 02:44:28;;;;;;;14.23;12.70;;;;;;;12.26;100.00;100290.88;5069695;28;20048;-74
2022/10/12 02:46:57;;;;;;;22.25;13.85;;;;;;;12.29;100.00;100290.63;5069632;28;20134;-74
2022/10/12 02:49:25;;;;;;;17.40;12.90;;;;;;;12.13;100.00;100291.16;5071822;28;20039;-74
2022/10/12 02:51:53;;;;;;;16.45;13.15;;;;;;;12.08;100.00;100287.22;5073137;28;20028;-74
2022/10/12 02:54:19;;;;;;;14.43;12.88;;;;;;;11.99;100.00;100291.50;5072966;28;20040;-74
2022/10/12 02:56:45;;;;;;;14.68;13.18;;;;;;;12.10;100.00;100290.56;5072870;28;20039;-74
2022/10/12 02:59:16;;;;;;;15.05;12.85;;;;;;;12.11;100.00;100286.97;5073181;28;20029;-74
2022/10/12 03:01:41;;;;;;;18.42;14.13;;;;;;;12.07;100.00;100290.84;5073028;28;20032;-73
2022/10/12 03:04:07;;;;;;;15.80;12.38;;;;;;;12.02;100.00;100290.38;5071622;28;20412;-74
2022/10/12 03:06:32;;;;;;;16.15;13.38;;;;;;;12.00;100.00;100289.72;5071119;28;20032;-73
2022/10/12 03:08:58;;;;;;;21.55;13.63;;;;;;;11.97;100.00;100293.44;5072568;28;20039;-74
2022/10/12 03:11:23;;;;;;;13.90;11.88;;;;;;;11.81;100.00;100291.31;5072861;28;20047;-74
2022/10/12 03:13:53;;;;;;;17.35;13.23;;;;;;;11.67;100.00;100288.13;5072383;28;20037;-73
2022/10/12 03:16:19;;;;;;;17.45;12.55;;;;;;;11.57;100.00;100285.44;5071018;28;20147;-74
2022/10/12 03:18:44;;;;;;;16.05;13.15;;;;;;;11.57;100.00;100288.09;5072103;28;20146;-74
2022/10/12 03:21:10;;;;;;;15.77;14.02;;;;;;;11.57;100.00;100282.81;5071333;28;20041;-74
2022/10/12 03:23:36;;;;;;;15.13;13.55;;;;;;;11.64;100.00;100278.66;5072406;28;20511;-74
2022/10/12 03:26:02;;;;;;;18.85;13.77;;;;;;;11.64;100.00;100273.38;5068359;28;20490;-73
2022/10/12 03:28:28;;;;;;;16.52;13.48;;;;;;;11.59;100.00;100285.31;5071085;28;20110;-73
2022/10/12 03:30:54;;;;;;;18.38;14.77;;;;;;;11.58;100.00;100273.91;5072704;28;20060;-74
2022/10/12 03:33:20;;;;;;;17.40;15.40;;;;;;;11.64;100.00;100275.19;5070643;28;20028;-74
2022/10/12 03:35:46;;;;;;;18.50;14.98;;;;;;;11.71;100.00;100279.81;5071852;28;20040;-73
2022/10/12 03:38:12;;;;;;;17.17;14.52;;;;;;;11.74;100.00;100282.22;5071169;28;20036;-73
2022/10/12 03:40:38;;;;;;;16.55;13.98;;;;;;;11.71;100.00;100285.13;5070595;28;20036;-74
2022/10/12 03:43:03;;;;;;;19.42;14.80;;;;;;;11.77;100.00;100289.91;5072623;28;20392;-74
2022/10/12 03:45:29;;;;;;;18.88;13.85;;;;;;;11.79;100.00;100282.66;5072065;28;20024;-74
2022/10/12 03:47:55;;;;;;;18.67;13.35;;;;;;;11.77;100.00;100289.91;5072502;28;20035;-75
2022/10/12 03:50:20;;;;;;;14.07;12.73;;;;;;;11.75;100.00;100291.84;5072193;28;20036;-74
2022/10/12 03:52:46;;;;;;;15.38;13.15;;;;;;;11.73;100.00;100285.81;5071803;28;20025;-74
2022/10/12 03:55:12;;;;;;;16.05;12.93;;;;;;;11.70;100.00;100294.00;5076015;28;20495;-73
2022/10/12 03:57:37;;;;;;;16.48;12.73;;;;;;;11.66;100.00;100289.97;5071678;28;20484;-73
2022/10/12 04:00:03;;;;;;;17.73;12.57;;;;;;;11.64;100.00;100294.53;5071935;28;20047;-74
2022/10/12 04:02:37;;;;;;;16.33;11.95;;;;;;;11.57;100.00;100293.38;5069394;28;20041;-73
2022/10/12 04:05:02;;;;;;;16.60;12.73;;;;;;;11.61;100.00;100299.22;5072029;28;20086;-73
2022/10/12 04:07:28;;;;;;;14.43;12.95;;;;;;;11.48;100.00;100299.47;5071000;28;20484;-73
2022/10/12 04:09:53;;;;;;;16.33;13.32;;;;;;;11.53;100.00;100291.13;5071245;28;20033;-73
2022/10/12 04:12:18;;;;;;;14.45;12.25;;;;;;;11.56;100.00;100302.28;5073222;28;20039;-74
2022/10/12 04:14:44;;;;;;;19.80;12.70;;;;;;;11.51;100.00;100301.81;5071208;28;20037;-73
2022/10/12 04:17:10;;;;;;;16.38;12.55;;;;;;;11.45;100.00;100302.34;5065003;28;20397;-73
2022/10/12 04:19:36;;;;;;;15.30;11.88;;;;;;;11.43;100.00;100306.91;5069336;28;20097;-73
2022/10/12 04:22:01;;;;;;;15.05;13.48;;;;;;;11.38;100.00;100303.81;5070977;28;20033;-75
2022/10/12 04:24:26;;;;;;;14.38;12.80;;;;;;;11.41;100.00;100303.59;5070303;28;20104;-73
2022/10/12 04:26:52;;;;;;;16.63;13.30;;;;;;;11.37;100.00;100299.50;5070851;28;20504;-73
2022/10/12 04:29:17;;;;;;;16.15;14.07;;;;;;;11.36;100.00;100301.34;5065521;28;20037;-74
2022/10/12 04:31:43;;;;;;;20.10;13.93;;;;;;;11.34;100.00;100302.41;5074309;28;20036;-74
2022/10/12 04:34:08;;;;;;;19.77;15.00;;;;;;;11.29;100.00;100309.91;5070899;28;20107;-73
2022/10/12 04:36:34;;;;;;;17.73;14.73;;;;;;;11.30;100.00;100311.59;5070128;28;20020;-74
2022/10/12 04:39:00;;;;;;;18.75;14.57;;;;;;;11.29;100.00;100316.03;5070507;28;20028;-73
2022/10/12 04:41:25;;;;;;;18.35;15.18;;;;;;;11.31;100.00;100313.25;5069940;28;20123;-73
2022/10/12 04:43:54;;;;;;;16.70;14.90;;;;;;;11.35;100.00;100310.22;5070515;28;20037;-74
2022/10/12 04:46:20;;;;;;;20.13;15.75;;;;;;;11.37;100.00;100316.19;5070495;28;20033;-75
2022/10/12 04:48:45;;;;;;;17.52;15.60;;;;;;;11.40;100.00;100318.59;5070219;28;20381;-74
2022/10/12 04:51:11;;;;;;;22.50;15.90;;;;;;;11.40;100.00;100315.13;5069602;28;20044;-75
2022/10/12 04:53:36;;;;;;;22.50;16.27;;;;;;;11.34;100.00;100311.19;5069954;28;20441;-73
2022/10/12 04:56:03;;;;;;;25.50;17.08;;;;;;;11.32;100.00;100322.84;5070074;28;20488;-72
2022/10/12 04:58:29;;;;;;;21.20;17.67;;;;;;;11.31;100.00;100315.91;5068822;28;20071;-72
2022/10/12 05:00:54;;;;;;;21.88;16.65;;;;;;;11.38;100.00;100319.69;5070078;28;20083;-74
2022/10/12 05:03:19;;;;;;;20.65;16.80;;;;;;;11.43;100.00;100330.69;5070280;28;20054;-74
2022/10/12 05:05:45;;;;;;;23.52;17.17;;;;;;;11.44;100.00;100329.75;5068538;28;20060;-73
2022/10/12 05:08:11;;;;;;;25.17;18.45;;;;;;;11.43;100.00;100328.91;5069852;28;20036;-74
2022/10/12 05:10:38;;;;;;;22.92;18.27;;;;;;;11.41;100.00;100325.56;5069685;28;20039;-73
2022/10/12 05:13:03;;;;;;;25.92;18.40;;;;;;;11.34;100.00;100334.13;5070017;28;20107;-73
2022/10/12 05:15:28;;;;;;;27.50;19.50;;;;;;;11.31;100.00;100337.03;5069295;28;20111;-77
2022/10/12 05:17:54;;;;;;;26.13;19.33;;;;;;;11.27;100.00;100335.59;5069588;28;20037;-78
2022/10/12 05:20:20;;;;;;;29.33;20.50;;;;;;;11.25;100.00;100329.63;5069507;28;20115;-75
2022/10/12 05:22:46;;;;;;;29.85;22.02;;;;;;;11.21;100.00;100333.47;5068247;28;20064;-77
2022/10/12 05:25:11;;;;;;;28.58;21.02;;;;;;;11.22;100.00;100335.16;5069288;28;20028;-74
2022/10/12 05:27:37;;;;;;;28.85;22.50;;;;;;;11.30;100.00;100338.00;5069202;28;20037;-75
2022/10/12 05:30:04;;;;;;;30.90;22.52;;;;;;;11.38;100.00;100340.81;5074031;28;20405;-73
2022/10/12 05:32:29;;;;;;;31.60;21.73;;;;;;;11.45;100.00;100336.72;5068145;28;20032;-75
2022/10/12 05:34:54;;;;;;;29.60;21.48;;;;;;;11.52;100.00;100337.03;5070031;28;20455;-73
2022/10/12 05:37:20;;;;;;;28.42;22.55;;;;;;;11.55;100.00;100342.03;5069831;28;20041;-77
2022/10/12 05:39:45;;;;;;;34.63;22.67;;;;;;;11.56;100.00;100338.44;5069389;28;20040;-77
2022/10/12 05:42:11;;;;;;;26.17;22.52;;;;;;;11.60;100.00;100345.16;5068631;28;20046;-76
2022/10/12 05:44:37;;;;;;;32.55;22.75;;;;;;;11.64;100.00;100349.22;5069460;28;20028;-78
2022/10/12 05:47:03;;;;;;;33.28;22.05;;;;;;;11.65;100.00;100348.25;5067591;28;20039;-75
2022/10/12 05:49:29;;;;;;;29.33;22.23;;;;;;;11.67;100.00;100351.56;5073487;28;20048;-76
2022/10/12 05:51:55;;;;;;;34.85;22.60;;;;;;;11.68;100.00;100346.16;5069460;28;20032;-73
2022/10/12 05:54:20;;;;;;;31.15;23.02;;;;;;;11.71;100.00;100348.56;5068657;28;20137;-76
2022/10/12 05:56:46;;;;;;;31.83;23.05;;;;;;;11.73;100.00;100351.94;5067918;28;20098;-75
2022/10/12 05:59:12;;;;;;;33.97;23.65;;;;;;;11.78;100.00;100347.06;5067252;28;20028;-74
2022/10/12 06:01:38;;;;;;;33.90;22.08;;;;;;;11.78;100.00;100355.00;5067213;28;20438;-75
2022/10/12 06:04:03;;;;;;;30.13;22.50;;;;;;;11.78;100.00;100347.06;5069149;28;20521;-74
2022/10/12 06:06:29;;;;;;;31.42;22.48;;;;;;;11.75;100.00;100355.28;5071895;28;20030;-74
2022/10/12 06:08:54;;;;;;;33.05;22.70;;;;;;;11.73;100.00;100365.16;5069455;28;21630;-75
2022/10/12 06:11:20;;;;;;;33.13;21.80;;;;;;;11.72;100.00;100365.28;5069077;28;20111;-75
2022/10/12 06:13:45;;;;;;;26.77;19.92;;;;;;;11.72;100.00;100355.50;5068760;28;20888;-74
2022/10/12 06:16:11;;;;;;;26.42;20.83;;;;;;;11.75;100.00;100360.56;5069058;28;20469;-74
2022/10/12 06:18:36;;;;;;;23.75;19.85;;;;;;;11.75;100.00;100365.88;5068020;28;20032;-74
2022/10/12 06:21:02;;;;;;;22.38;18.73;;;;;;;11.69;100.00;100371.66;5065388;28;20086;-72
2022/10/12 06:23:27;;;;;;;19.92;17.83;;;;;;;11.60;100.00;100372.44;5070604;28;20094;-73
2022/10/12 06:25:53;;;;;;;19.30;17.23;;;;;;;11.62;100.00;100375.78;5076902;28;20034;-74
2022/10/12 06:28:20;;;;;;;18.75;16.63;;;;;;;11.63;100.00;100372.16;5071162;28;20443;-75
2022/10/12 06:30:52;;;;;;;22.77;16.38;;;;;;;11.68;100.00;100379.69;5072264;28;20078;-73
2022/10/12 06:33:17;;;;;;;19.15;16.60;;;;;;;11.65;100.00;100380.81;5072844;28;20033;-73
2022/10/12 06:35:42;;;;;;;20.40;16.80;;;;;;;11.67;100.00;100381.50;5072540;28;20494;-74
2022/10/12 06:38:08;;;;;;;18.23;16.30;;;;;;;11.70;100.00;100373.31;5072929;28;20040;-74
2022/10/12 06:40:33;;;;;;;22.15;17.33;;;;;;;11.61;100.00;100368.78;5072408;28;20074;-73
2022/10/12 06:43:01;;;;;;;19.80;17.63;;;;;;;11.65;100.00;100367.59;5071377;28;20064;-73
2022/10/12 06:45:28;;;;;;;19.60;17.60;;;;;;;11.67;100.00;100378.00;5076476;28;20040;-74
2022/10/12 06:47:54;;;;;;;20.98;17.85;;;;;;;11.69;100.00;100371.66;5072021;28;20412;-74
2022/10/12 06:50:19;;;;;;;22.02;17.77;;;;;;;11.73;100.00;100378.38;5071555;28;20029;-74
2022/10/12 06:52:46;;;;;;;21.48;19.27;;;;;;;11.81;100.00;100381.22;5072527;28;20090;-74
2022/10/12 06:55:11;;;;;;;21.40;19.20;;;;;;;11.93;100.00;100383.78;5072698;28;20036;-73
2022/10/12 06:57:36;;;;;;;20.67;18.55;;;;;;;12.04;100.00;100381.88;5071833;28;20419;-73
2022/10/12 07:00:04;;;;;;;22.80;19.63;;;;;;;12.16;100.00;100385.28;5072423;28;20029;-74
2022/10/12 07:02:30;;;;;;;22.15;19.77;;;;;;;12.29;100.00;100383.25;5071700;28;20169;-74
2022/10/12 07:04:55;;;;;;;22.75;20.38;;;;;;;12.38;100.00;100387.72;5076758;28;20443;-74
2022/10/12 07:07:20;;;;;;;22.33;19.88;;;;;;;12.36;100.00;100392.34;5071779;28;20178;-74
2022/10/12 07:09:46;;;;;;;25.83;20.30;;;;;;;12.50;100.00;100391.94;5072034;28;20374;-74
2022/10/12 07:12:11;;;;;;;22.92;20.45;;;;;;;12.54;100.00;100388.09;5067169;28;20134;-74
2022/10/12 07:14:37;;;;;;;22.45;19.75;;;;;;;12.62;100.00;100390.88;5065794;28;20051;-73
2022/10/12 07:17:02;;;;;;;20.35;18.10;;;;;;;12.75;100.00;100387.13;5071366;28;20024;-74
2022/10/12 07:19:28;;;;;;;20.52;18.33;;;;;;;12.82;100.00;100388.28;5070994;28;20035;-74
2022/10/12 07:21:53;;;;;;;20.42;17.73;;;;;;;12.88;100.00;100382.44;5070908;28;20413;-73
2022/10/12 07:24:18;;;;;;;21.20;17.63;;;;;;;12.90;100.00;100391.09;5074699;28;20400;-74
2022/10/12 07:26:44;;;;;;;21.42;17.90;;;;;;;12.95;100.00;100388.84;5070990;28;20108;-75
2022/10/12 07:29:09;;;;;;;19.77;17.80;;;;;;;13.08;100.00;100394.69;5071073;28;20044;-74
2022/10/12 07:31:36;;;;;;;20.95;18.10;;;;;;;13.12;100.00;100404.09;5071225;28;20039;-76
2022/10/12 07:34:01;;;;;;;22.17;17.42;;;;;;;13.24;100.00;100399.50;5071576;28;20714;-75
2022/10/12 07:36:26;;;;;;;21.73;18.00;;;;;;;13.20;100.00;100398.94;5071927;28;20036;-74
2022/10/12 07:38:52;;;;;;;22.17;19.48;;;;;;;13.30;100.00;100402.44;5071733;28;20104;-74
2022/10/12 07:41:18;;;;;;;21.75;19.25;;;;;;;13.40;100.00;100405.91;5073576;28;20040;-74
2022/10/12 07:43:43;;;;;;;25.30;18.95;;;;;;;13.49;100.00;100405.06;5074457;28;20094;-74
2022/10/12 07:46:09;;;;;;;22.30;19.85;;;;;;;13.62;100.00;100411.88;5065286;28;20132;-74
2022/10/12 07:48:36;;;;;;;20.83;18.63;;;;;;;13.65;100.00;100415.13;5059217;28;20024;-75
2022/10/12 07:51:07;;;;;;;24.92;18.58;;;;;;;13.73;100.00;100417.03;5056895;28;20038;-75
2022/10/12 07:53:34;;;;;;;20.00;17.90;;;;;;;13.80;100.00;100418.16;5055911;28;20054;-74
2022/10/12 07:56:00;;;;;;;22.05;18.80;;;;;;;13.85;100.00;100415.91;5056304;28;20052;-74
2022/10/12 07:58:26;;;;;;;24.95;18.67;;;;;;;13.85;100.00;100415.91;5055274;28;20498;-75
2022/10/12 08:00:51;;;;;;;24.48;18.10;;;;;;;13.87;100.00;100419.25;5055946;28;20038;-74
2022/10/12 08:03:17;;;;;;;24.27;19.38;;;;;;;13.89;100.00;100418.16;5054897;28;20056;-74
2022/10/12 08:05:42;;;;;;;24.48;18.90;;;;;;;13.98;100.00;100416.44;5055869;28;20042;-74
2022/10/12 08:08:08;;;;;;;25.42;18.67;;;;;;;14.01;100.00;100421.47;5054409;28;20087;-74
2022/10/12 08:10:34;;;;;;;27.13;20.48;;;;;;;14.17;100.00;100418.22;5055824;28;20043;-73
2022/10/12 08:13:00;;;;;;;24.17;19.27;;;;;;;14.31;100.00;100423.88;5056096;28;20523;-74
2022/10/12 08:15:26;;;;;;;23.05;19.20;;;;;;;14.43;100.00;100419.25;5055427;28;20048;-74
2022/10/12 08:17:51;;;;;;;25.17;19.88;;;;;;;14.62;100.00;100423.63;5052997;28;20044;-74
2022/10/12 08:20:17;;;;;;;24.13;19.90;;;;;;;14.74;100.00;100425.09;5056420;28;20064;-74
2022/10/12 08:22:42;;;;;;;22.65;19.23;;;;;;;14.71;100.00;100412.13;5055202;28;20059;-74
2022/10/12 08:25:08;;;;;;;22.20;18.33;;;;;;;14.68;100.00;100423.03;5057236;28;20115;-75
2022/10/12 08:27:34;;;;;;;23.38;18.10;;;;;;;14.74;100.00;100425.09;5055109;28;20035;-74
2022/10/12 08:30:00;;;;;;;20.77;18.35;;;;;;;14.84;100.00;100420.59;5056940;28;20028;-74
2022/10/12 08:32:25;;;;;;;20.60;16.35;;;;;;;14.98;100.00;100421.88;5057841;28;20029;-74
2022/10/12 08:34:51;;;;;;;18.75;16.05;;;;;;;14.98;100.00;100417.41;5055961;28;20044;-74
2022/10/12 08:37:16;;;;;;;23.58;16.55;;;;;;;15.03;100.00;100420.44;5054737;28;20045;-75
2022/10/12 08:39:41;;;;;;;20.20;17.75;;;;;;;15.16;100.00;100415.59;5056311;28;20037;-75
2022/10/12 08:42:37;;;;;;;19.05;16.60;;;;;;;15.34;100.00;100420.09;5056389;28;20101;-75
2022/10/12 08:45:18;;;;;;;20.48;17.55;;;;;;;15.43;100.00;100421.84;5055336;28;20028;-74
2022/10/12 08:47:47;;;;;;;;;;;;;;;15.46;100.00;100421.53;5052058;28;20097;-74
2022/10/12 08:50:25;;;;;;;18.17;16.27;;;;;;;15.48;100.00;100415.09;5056091;28;19924;-75
2022/10/12 08:52:58;;;;;;;19.38;16.45;;;;;;;15.51;100.00;100414.75;5056473;28;20043;-74
2022/10/12 08:55:38;;;;;;;20.23;17.38;;;;;;;15.59;100.00;100416.69;5056037;28;20048;-75
2022/10/12 08:58:19;;;;;;;24.42;18.80;;;;;;;15.60;100.00;100417.53;5054497;28;20028;-74
2022/10/12 09:00:48;;;;;;;22.45;17.13;;;;;;;15.64;100.00;100414.41;5055703;28;20476;-74
2022/10/12 09:03:37;;;;;;;20.98;17.58;;;;;;;15.70;100.00;100408.47;5055577;28;20037;-73
2022/10/12 09:06:25;;;;;;;27.98;18.88;;;;;;;15.76;100.00;100412.31;5049881;28;20045;-74
2022/10/12 09:09:03;;;;;;;22.38;18.50;;;;;;;15.74;100.00;100408.97;5055019;28;20044;-74
2022/10/12 09:11:54;;;;;;;21.13;18.40;;;;;;;15.80;100.00;100408.34;5054630;28;20583;-75
2022/10/12 09:14:31;;;;;;;23.48;18.13;;;;;;;15.81;100.00;100410.88;5055467;28;20036;-74
2022/10/12 09:17:00;;;;;;;24.58;18.27;;;;;;;15.81;100.00;100410.88;5054215;28;21217;-75
2022/10/12 09:19:37;;;;;;;26.08;19.33;;;;;;;15.83;100.00;100408.91;5054633;28;20032;-74
2022/10/12 09:22:05;;;;;;;29.85;19.25;;;;;;;15.84;100.00;100407.91;5055506;28;21307;-75
2022/10/12 09:24:35;;;;;;;23.10;19.35;;;;;;;15.85;100.00;100417.53;5054082;28;20051;-74
2022/10/12 09:27:12;;;;;;;25.67;19.80;;;;;;;15.88;100.00;100401.28;5053602;28;20033;-74
2022/10/12 09:29:44;;;;;;;;;;;;;;;15.91;100.00;100403.63;5053514;28;20035;-74
2022/10/12 09:32:32;;;;;;;29.38;20.52;;;;;;;15.93;100.00;100406.97;5054375;28;19924;-75
2022/10/12 09:34:58;;;;;;;26.38;19.85;;;;;;;15.96;100.00;100403.97;5055361;28;20480;-75
2022/10/12 09:37:29;;;;;;;26.75;20.70;;;;;;;16.00;100.00;100401.00;5053967;28;20044;-75
2022/10/12 09:39:54;;;;;;;26.15;20.13;;;;;;;16.02;100.00;100386.56;5054979;28;20063;-74
2022/10/12 09:42:20;;;;;;;28.13;21.25;;;;;;;16.08;100.00;100399.22;5055126;28;20117;-74
2022/10/12 09:44:47;;;;;;;26.63;22.60;;;;;;;16.14;100.00;100405.78;5054065;28;20076;-75
2022/10/12 09:47:28;;;;;;;30.52;22.75;;;;;;;16.20;100.00;100405.13;5052495;28;20040;-75
2022/10/12 09:49:59;;;;;;;31.33;22.52;;;;;;;16.26;100.00;100410.63;5055118;28;20072;-77
2022/10/12 09:52:29;;;;;;;31.08;20.98;;;;;;;16.33;100.00;100406.34;5054089;28;20039;-74
2022/10/12 09:55:02;;;;;;;29.23;22.50;;;;;;;16.42;100.00;100404.59;5052269;28;20036;-75
2022/10/12 09:57:40;;;;;;;27.73;22.08;;;;;;;16.52;100.00;100405.28;5053004;28;20401;-75
2022/10/12 10:00:25;;;;;;;33.78;24.58;;;;;;;16.61;100.00;100404.34;5054886;28;20132;-76
2022/10/12 10:02:52;;;;;;;33.25;23.00;;;;;;;16.66;100.00;100401.22;5055155;28;20044;-73
2022/10/12 10:05:37;;;;;;;32.53;23.90;;;;;;;16.71;100.00;100399.72;5054660;28;20119;-77
2022/10/12 10:08:19;;;;;;;30.88;23.45;;;;;;;16.76;100.00;100400.06;5053918;28;20152;-76
2022/10/12 10:10:53;;;;;;;31.17;24.48;;;;;;;16.81;100.00;100404.06;5052739;28;20033;-76
2022/10/12 10:13:20;;;;;;;35.47;23.70;;;;;;;16.89;100.00;100401.44;5055004;28;20045;-74
2022/10/12 10:15:49;;;;;;;34.15;24.77;;;;;;;16.94;100.00;100393.78;5054298;28;20041;-75
2022/10/12 10:18:32;;;;;;;28.98;24.30;;;;;;;17.01;100.00;100394.81;5053883;28;20449;-76
2022/10/12 10:20:59;;;;;;;33.53;25.60;;;;;;;17.09;100.00;100390.31;5053856;28;21723;-76
2022/10/12 10:23:31;;;;;;;30.90;25.15;;;;;;;17.16;100.00;100387.81;5052460;28;20044;-75
2022/10/12 10:26:06;;;;;;;31.92;25.02;;;;;;;17.22;100.00;100389.81;5055211;28;20404;-74
2022/10/12 10:28:34;;;;;;;32.70;24.40;;;;;;;17.32;100.00;100387.03;5054038;28;20040;-74
2022/10/12 10:31:02;;;;;;;33.47;24.80;;;;;;;17.41;100.00;100386.00;5053275;28;20829;-76
2022/10/12 10:33:33;;;;;;;33.92;25.80;;;;;;;17.48;100.00;100387.84;5053731;28;20041;-75
2022/10/12 10:36:21;;;;;;;35.78;26.80;;;;;;;17.53;100.00;100384.69;5052963;28;20040;-75
2022/10/12 10:38:56;;;;;;;33.42;25.80;;;;;;;17.58;100.00;100383.19;5052459;28;20852;-75
2022/10/12 10:41:27;;;;;;;34.42;26.33;;;;;;;17.68;100.00;100387.53;5054793;28;20063;-75
2022/10/12 10:43:53;;;;;;;37.85;28.05;;;;;;;17.76;100.00;100395.53;5054553;28;20043;-75
2022/10/12 10:46:25;;;;;;;35.90;27.65;;;;;;;17.85;100.00;100399.84;5053179;28;20041;-73
2022/10/12 10:48:57;;;;;;;33.53;26.17;;;;;;;17.96;100.00;100394.19;5054446;28;20033;-74
2022/10/12 10:51:49;;;;;;;38.42;27.77;;;;;;;18.07;100.00;100399.16;5052739;28;20045;-73
2022/10/12 10:54:39;;;;;;;37.97;27.38;;;;;;;18.18;100.00;100401.47;5054229;28;20048;-75
2022/10/12 10:57:11;;;;;;;37.00;26.75;;;;;;;18.31;100.00;100409.78;5053627;28;20048;-73
2022/10/12 10:59:58;;;;;;;34.78;26.30;;;;;;;18.42;100.00;100406.75;5053562;28;20047;-73
2022/10/12 11:02:37;;;;;;;38.33;26.45;;;;;;;18.54;100.00;100401.00;5054523;28;20083;-73
2022/10/12 11:05:14;;;;;;;36.42;26.98;;;;;;;18.66;100.00;100402.34;5053124;28;20105;-74
2022/10/12 11:07:42;;;;;;;37.90;26.25;;;;;;;18.80;100.00;100402.41;5053068;28;21521;-77
2022/10/12 11:10:21;;;;;;;34.67;25.65;;;;;;;18.93;100.00;100395.66;5056640;28;20049;-75
2022/10/12 11:12:52;;;;;;;33.17;25.23;;;;;;;19.03;100.00;100390.91;5055390;28;20039;-75